createdAt,value
2022-11-30T00:01:24.559Z,1.69
2022-11-30T00:03:57.218Z,1.69
2022-11-30T00:06:25.899Z,1.57
2022-11-30T00:08:56.357Z,1.43
2022-11-30T00:11:26.284Z,1.42
2022-11-30T00:13:54.135Z,1.34
2022-11-30T00:16:22.027Z,1.44
2022-11-30T00:18:49.505Z,1.46
2022-11-30T00:21:16.752Z,1.40
2022-11-30T00:23:47.125Z,1.27
2022-11-30T00:26:19.011Z,1.21
2022-11-30T00:28:46.717Z,1.14
2022-11-30T00:31:17.453Z,1.10
2022-11-30T00:33:45.379Z,1.30
2022-11-30T00:36:18.620Z,1.38
2022-11-30T00:38:47.013Z,1.38
2022-11-30T00:41:16.031Z,1.33
2022-11-30T00:43:43.635Z,1.43
2022-11-30T00:46:11.535Z,1.50
2022-11-30T00:48:40.752Z,1.62
2022-11-30T00:51:11.079Z,1.53
2022-11-30T00:53:39.451Z,1.42
2022-11-30T00:56:08.404Z,1.40
2022-11-30T00:58:35.777Z,1.25
2022-11-30T01:01:03.502Z,1.36
2022-11-30T01:03:30.768Z,1.41
2022-11-30T01:06:09.628Z,1.39
2022-11-30T01:08:36.993Z,1.36
2022-11-30T01:11:21.289Z,1.26
2022-11-30T01:13:48.548Z,1.19
2022-11-30T01:16:22.198Z,1.13
2022-11-30T01:18:50.151Z,1.09
2022-11-30T01:21:25.992Z,1.24
2022-11-30T01:23:53.701Z,1.13
2022-11-30T01:26:21.868Z,1.04
2022-11-30T01:28:55.091Z,1.14
2022-11-30T01:31:24.696Z,1.23
2022-11-30T01:33:55.267Z,1.28
2022-11-30T01:36:26.407Z,1.33
2022-11-30T01:38:56.939Z,1.14
2022-11-30T01:41:32.080Z,1.02
2022-11-30T01:44:05.245Z,1.05
2022-11-30T01:47:06.910Z,1.20
2022-11-30T01:49:44.122Z,1.22
2022-11-30T01:52:20.668Z,1.21
2022-11-30T01:55:18.224Z,1.09
2022-11-30T01:58:11.654Z,0.94
2022-11-30T02:00:46.260Z,1.11
2022-11-30T02:03:40.353Z,1.07
2022-11-30T02:06:08.416Z,1.11
2022-11-30T02:08:35.796Z,1.14
2022-11-30T02:11:13.435Z,1.14
2022-11-30T02:14:13.613Z,1.05
2022-11-30T02:17:00.751Z,0.98
2022-11-30T02:20:23.596Z,1.00
2022-11-30T02:23:44.304Z,1.07
2022-11-30T02:27:00.973Z,1.24
2022-11-30T02:30:04.214Z,1.19
2022-11-30T02:32:42.881Z,1.21
2022-11-30T02:35:12.091Z,1.49
2022-11-30T02:37:40.369Z,1.55
2022-11-30T02:40:13.089Z,1.46
2022-11-30T02:42:40.262Z,1.45
2022-11-30T02:45:09.663Z,1.49
2022-11-30T02:48:08.770Z,1.54
2022-11-30T02:50:55.129Z,1.51
2022-11-30T02:53:22.730Z,1.51
2022-11-30T02:55:49.910Z,1.46
2022-11-30T02:58:18.035Z,1.53
2022-11-30T03:00:45.648Z,1.59
2022-11-30T03:03:13.107Z,1.71
2022-11-30T03:05:40.411Z,1.76
2022-11-30T03:08:07.609Z,1.73
2022-11-30T03:10:34.809Z,1.83
2022-11-30T03:13:02.129Z,1.90
2022-11-30T03:15:29.357Z,1.97
2022-11-30T03:17:56.794Z,2.00
2022-11-30T03:20:24.109Z,2.05
2022-11-30T03:22:51.345Z,1.90
2022-11-30T03:25:18.572Z,1.71
2022-11-30T03:27:45.813Z,1.68
2022-11-30T03:30:13.444Z,1.74
2022-11-30T03:32:40.629Z,1.86
2022-11-30T03:35:08.477Z,1.77
2022-11-30T03:37:35.642Z,1.73
2022-11-30T03:40:03.817Z,1.84
2022-11-30T03:42:31.000Z,1.86
2022-11-30T03:44:58.251Z,1.90
2022-11-30T03:47:25.408Z,1.70
2022-11-30T03:49:52.642Z,1.58
2022-11-30T03:52:19.828Z,1.74
2022-11-30T03:54:47.261Z,1.65
2022-11-30T03:57:14.663Z,1.66
2022-11-30T03:59:41.909Z,1.75
2022-11-30T04:02:09.189Z,1.70
2022-11-30T04:04:36.412Z,1.61
2022-11-30T04:07:03.687Z,1.60
2022-11-30T04:09:31.123Z,1.61
2022-11-30T04:11:58.965Z,1.54
2022-11-30T04:14:26.240Z,1.36
2022-11-30T04:16:53.447Z,1.23
2022-11-30T04:19:20.737Z,1.23
2022-11-30T04:21:48.107Z,1.37
2022-11-30T04:24:15.307Z,1.47
2022-11-30T04:26:42.659Z,1.36
2022-11-30T04:29:10.040Z,1.34
2022-11-30T04:31:37.397Z,1.42
2022-11-30T04:34:04.802Z,1.46
2022-11-30T04:36:32.033Z,1.53
2022-11-30T04:38:59.308Z,1.54
2022-11-30T04:41:26.496Z,1.32
2022-11-30T04:43:53.720Z,1.10
2022-11-30T04:46:21.029Z,1.10
2022-11-30T04:48:48.244Z,1.22
2022-11-30T04:51:15.423Z,1.30
2022-11-30T04:53:42.559Z,1.28
2022-11-30T04:56:11.855Z,1.22
2022-11-30T04:58:39.836Z,1.17
2022-11-30T05:01:07.831Z,1.15
2022-11-30T05:03:35.623Z,1.14
2022-11-30T05:06:03.609Z,1.08
2022-11-30T05:08:30.962Z,1.03
2022-11-30T05:10:58.148Z,1.05
2022-11-30T05:13:26.519Z,1.06
2022-11-30T05:15:54.262Z,1.02
2022-11-30T05:18:22.253Z,1.07
2022-11-30T05:20:51.683Z,1.34
2022-11-30T05:23:20.533Z,1.47
2022-11-30T05:25:47.971Z,1.43
2022-11-30T05:28:15.712Z,1.39
2022-11-30T05:30:44.089Z,1.58
2022-11-30T05:33:12.028Z,1.76
2022-11-30T05:35:39.572Z,1.85
2022-11-30T05:38:06.768Z,1.94
2022-11-30T05:40:33.960Z,1.91
2022-11-30T05:43:03.654Z,1.73
2022-11-30T05:45:31.494Z,1.71
2022-11-30T05:47:58.704Z,1.78
2022-11-30T05:50:25.901Z,2.04
2022-11-30T05:52:57.796Z,2.16
2022-11-30T05:55:25.448Z,2.03
2022-11-30T05:57:53.229Z,1.91
2022-11-30T06:00:21.997Z,1.78
2022-11-30T06:02:55.535Z,1.97
2022-11-30T06:05:22.792Z,2.09
2022-11-30T06:07:50.053Z,2.16
2022-11-30T06:10:17.856Z,2.14
2022-11-30T06:12:45.091Z,2.07
2022-11-30T06:15:12.529Z,2.15
2022-11-30T06:17:39.767Z,2.29
2022-11-30T06:20:08.856Z,2.38
2022-11-30T06:22:36.238Z,2.38
2022-11-30T06:25:04.539Z,2.35
2022-11-30T06:27:32.341Z,2.43
2022-11-30T06:29:59.687Z,2.42
2022-11-30T06:32:26.913Z,2.44
2022-11-30T06:34:54.124Z,2.50
2022-11-30T06:37:21.313Z,2.54
2022-11-30T06:40:05.935Z,2.52
2022-11-30T06:42:35.200Z,2.46
2022-11-30T06:45:03.080Z,2.48
2022-11-30T06:47:30.927Z,2.58
2022-11-30T06:49:58.068Z,2.63
2022-11-30T06:52:25.696Z,2.65
2022-11-30T06:54:52.994Z,2.68
2022-11-30T06:57:20.253Z,2.65
2022-11-30T06:59:47.521Z,2.65
2022-11-30T07:02:18.303Z,2.74
2022-11-30T07:04:47.212Z,2.73
2022-11-30T07:07:15.202Z,2.64
2022-11-30T07:09:42.780Z,2.68
2022-11-30T07:12:10.014Z,2.72
2022-11-30T07:14:37.228Z,2.73
2022-11-30T07:17:04.681Z,2.69
2022-11-30T07:19:36.022Z,2.68
2022-11-30T07:22:03.464Z,2.84
2022-11-30T07:24:49.789Z,2.97
2022-11-30T07:27:17.258Z,3.05
2022-11-30T07:29:44.463Z,2.97
2022-11-30T07:32:11.714Z,3.01
2022-11-30T07:34:38.972Z,3.11
2022-11-30T07:37:06.244Z,3.21
2022-11-30T07:39:33.393Z,3.24
2022-11-30T07:42:00.662Z,3.26
2022-11-30T07:44:27.977Z,3.33
2022-11-30T07:46:55.225Z,3.40
2022-11-30T07:49:22.424Z,3.45
2022-11-30T07:51:49.620Z,3.49
2022-11-30T07:54:16.916Z,3.52
2022-11-30T07:56:44.108Z,3.55
2022-11-30T07:59:11.346Z,3.57
2022-11-30T08:01:38.575Z,3.58
2022-11-30T08:04:06.042Z,3.54
2022-11-30T08:06:33.331Z,3.58
2022-11-30T08:09:04.558Z,3.57
2022-11-30T08:11:37.000Z,3.59
2022-11-30T08:14:05.380Z,3.66
2022-11-30T08:16:40.304Z,3.73
2022-11-30T08:19:07.576Z,3.79
2022-11-30T08:21:35.076Z,3.78
2022-11-30T08:24:02.715Z,3.81
2022-11-30T08:26:33.822Z,3.83
2022-11-30T08:29:01.873Z,3.87
2022-11-30T08:31:33.769Z,3.91
2022-11-30T08:34:11.247Z,3.97
2022-11-30T08:36:40.412Z,4.06
2022-11-30T08:39:11.395Z,4.05
2022-11-30T08:41:39.296Z,4.09
2022-11-30T08:44:07.023Z,4.10
2022-11-30T08:46:52.173Z,4.13
2022-11-30T08:49:22.889Z,4.17
2022-11-30T08:54:45.895Z,4.20
2022-11-30T08:57:20.341Z,4.23
2022-11-30T08:59:48.646Z,4.25
2022-11-30T09:02:19.522Z,4.24
2022-11-30T09:04:49.461Z,4.20
2022-11-30T09:07:17.440Z,4.20
2022-11-30T09:09:44.830Z,4.19
2022-11-30T09:12:11.988Z,4.22
2022-11-30T09:14:39.132Z,4.19
2022-11-30T09:17:06.378Z,4.19
2022-11-30T09:19:33.552Z,4.22
2022-11-30T09:22:00.697Z,4.23
2022-11-30T09:24:28.066Z,4.30
2022-11-30T09:26:57.337Z,4.34
2022-11-30T09:29:24.542Z,4.40
2022-11-30T09:31:51.798Z,4.43
2022-11-30T09:34:19.225Z,4.49
2022-11-30T09:36:46.381Z,4.57
2022-11-30T09:39:13.875Z,4.59
2022-11-30T09:42:17.517Z,4.59
2022-11-30T09:45:04.467Z,4.58
2022-11-30T09:48:02.081Z,4.57
2022-11-30T09:50:39.115Z,4.54
2022-11-30T09:53:22.045Z,4.53
2022-11-30T09:55:54.788Z,4.55
2022-11-30T09:58:53.157Z,4.47
2022-11-30T10:01:21.943Z,4.49
2022-11-30T10:03:49.868Z,4.46
2022-11-30T10:06:51.283Z,4.43
2022-11-30T10:10:23.600Z,4.37
2022-11-30T10:13:00.747Z,4.36
2022-11-30T10:16:00.590Z,4.44
2022-11-30T10:18:32.125Z,4.46
2022-11-30T10:21:36.449Z,4.48
2022-11-30T10:24:53.402Z,4.54
2022-11-30T10:27:51.666Z,4.56
2022-11-30T10:30:35.624Z,4.52
2022-11-30T10:33:19.104Z,4.51
2022-11-30T10:36:08.426Z,4.58
2022-11-30T10:38:51.651Z,4.64
2022-11-30T10:41:37.481Z,4.56
2022-11-30T10:44:15.935Z,4.54
2022-11-30T10:47:01.799Z,4.55
2022-11-30T10:49:31.998Z,4.53
2022-11-30T10:52:06.213Z,4.49
2022-11-30T10:54:36.982Z,4.49
2022-11-30T10:57:07.099Z,4.49
2022-11-30T10:59:53.154Z,4.51
2022-11-30T11:02:34.358Z,4.49
2022-11-30T11:05:23.896Z,4.57
2022-11-30T11:08:06.215Z,4.59
2022-11-30T11:10:51.472Z,4.68
2022-11-30T11:13:43.980Z,4.68
2022-11-30T11:16:13.495Z,4.69
2022-11-30T11:19:46.434Z,4.65
2022-11-30T11:22:27.579Z,4.65
2022-11-30T11:25:21.312Z,4.70
2022-11-30T11:28:04.586Z,4.68
2022-11-30T11:30:33.500Z,4.70
2022-11-30T11:33:26.374Z,4.73
2022-11-30T11:36:14.851Z,4.73
2022-11-30T11:38:47.120Z,4.70
2022-11-30T11:41:37.463Z,4.73
2022-11-30T11:44:09.382Z,4.72
2022-11-30T11:46:57.539Z,4.67
2022-11-30T11:49:37.903Z,4.68
2022-11-30T11:52:11.123Z,4.67
2022-11-30T11:55:03.326Z,4.76
2022-11-30T11:57:45.227Z,4.77
2022-11-30T12:00:25.284Z,4.65
2022-11-30T12:03:26.419Z,4.61
2022-11-30T12:06:11.611Z,4.67
2022-11-30T12:08:57.411Z,4.62
2022-11-30T12:11:45.535Z,4.62
2022-11-30T12:14:19.251Z,4.69
2022-11-30T12:17:40.345Z,4.69
2022-11-30T12:20:58.464Z,4.66
2022-11-30T12:24:10.163Z,4.68
2022-11-30T12:27:11.548Z,4.75
2022-11-30T12:29:54.164Z,4.68
2022-11-30T12:32:58.118Z,4.69
2022-11-30T12:36:14.070Z,4.64
2022-11-30T12:39:09.977Z,4.68
2022-11-30T12:42:06.958Z,4.76
2022-11-30T12:45:17.079Z,4.75
2022-11-30T12:48:21.539Z,4.71
2022-11-30T12:51:06.648Z,4.75
2022-11-30T12:54:10.025Z,4.80
2022-11-30T12:56:50.127Z,4.84
2022-11-30T13:00:31.728Z,4.89
2022-11-30T13:03:42.554Z,4.84
2022-11-30T13:06:14.256Z,4.89
2022-11-30T13:09:06.812Z,4.85
2022-11-30T13:11:41.341Z,4.85
2022-11-30T13:14:22.992Z,4.90
2022-11-30T13:17:17.302Z,4.98
2022-11-30T13:20:29.141Z,4.92
2022-11-30T13:23:35.979Z,4.83
2022-11-30T13:27:18.559Z,4.84
2022-11-30T13:30:29.349Z,4.90
2022-11-30T13:32:58.543Z,4.91
2022-11-30T13:35:29.311Z,4.90
2022-11-30T13:38:36.209Z,4.91
2022-11-30T13:40:59.280Z,4.89
2022-11-30T13:43:35.677Z,4.89
2022-11-30T13:46:23.773Z,4.85
2022-11-30T13:49:29.033Z,4.89
2022-11-30T13:52:21.669Z,4.95
2022-11-30T13:54:57.163Z,4.96
2022-11-30T13:57:30.511Z,5.01
2022-11-30T14:00:00.119Z,5.07
2022-11-30T14:02:54.434Z,5.08
2022-11-30T14:05:39.897Z,5.21
2022-11-30T14:08:07.073Z,5.20
2022-11-30T14:10:37.724Z,5.19
2022-11-30T14:13:10.987Z,5.23
2022-11-30T14:15:41.905Z,5.26
2022-11-30T14:18:08.936Z,5.19
2022-11-30T14:21:03.825Z,5.14
2022-11-30T14:23:48.796Z,5.11
2022-11-30T14:26:29.479Z,5.15
2022-11-30T14:29:07.484Z,5.10
2022-11-30T14:32:06.065Z,5.09
2022-11-30T14:34:46.293Z,5.05
2022-11-30T14:37:25.390Z,5.11
2022-11-30T14:40:02.092Z,5.12
2022-11-30T14:42:32.861Z,5.08
2022-11-30T14:45:00.354Z,5.08
2022-11-30T14:47:36.268Z,5.04
2022-11-30T14:50:06.620Z,5.02
2022-11-30T14:53:21.685Z,4.97
2022-11-30T14:56:19.952Z,4.94
2022-11-30T14:59:07.275Z,4.95
2022-11-30T15:01:34.559Z,4.92
2022-11-30T15:04:13.371Z,4.83
2022-11-30T15:06:41.453Z,4.80
2022-11-30T15:09:23.389Z,4.78
2022-11-30T15:11:52.590Z,4.70
2022-11-30T15:14:20.005Z,4.60
2022-11-30T15:16:58.003Z,4.56
2022-11-30T15:19:32.832Z,4.49
2022-11-30T15:22:00.795Z,4.39
2022-11-30T15:24:29.766Z,4.29
2022-11-30T15:27:10.919Z,4.20
2022-11-30T15:29:47.376Z,4.13
2022-11-30T15:32:19.769Z,4.07
2022-11-30T15:35:00.814Z,3.97
2022-11-30T15:37:39.590Z,3.90
2022-11-30T15:40:10.727Z,3.83
2022-11-30T15:42:40.567Z,3.81
2022-11-30T15:45:27.486Z,3.73
2022-11-30T15:47:57.280Z,3.63
2022-11-30T15:50:28.323Z,3.55
2022-11-30T15:53:01.836Z,3.51
2022-11-30T15:55:49.552Z,3.41
2022-11-30T15:58:56.800Z,3.31
2022-11-30T16:01:26.008Z,3.14
2022-11-30T16:03:56.296Z,3.07
2022-11-30T16:06:44.687Z,3.05
2022-11-30T16:09:32.441Z,2.98
2022-11-30T16:12:01.805Z,2.86
2022-11-30T16:14:29.084Z,2.81
2022-11-30T16:16:56.365Z,2.79
2022-11-30T16:19:23.661Z,2.79
2022-11-30T16:21:50.880Z,2.75
2022-11-30T16:24:18.436Z,2.68
2022-11-30T16:26:52.857Z,2.65
2022-11-30T16:29:20.651Z,2.62
2022-11-30T16:31:48.061Z,2.59
2022-11-30T16:34:15.341Z,2.62
2022-11-30T16:36:42.644Z,2.56
2022-11-30T16:39:12.857Z,2.52
2022-11-30T16:41:40.068Z,2.51
2022-11-30T16:44:14.164Z,2.50
2022-11-30T16:46:41.482Z,2.49
2022-11-30T16:49:08.766Z,2.44
2022-11-30T16:51:36.352Z,2.37
2022-11-30T16:54:04.317Z,2.35
2022-11-30T16:56:31.581Z,2.36
2022-11-30T16:58:58.808Z,2.40
2022-11-30T17:01:45.896Z,2.38
2022-11-30T17:04:26.972Z,2.40
2022-11-30T17:07:00.454Z,2.44
2022-11-30T17:09:30.276Z,2.42
2022-11-30T17:11:57.591Z,2.47
2022-11-30T17:14:24.809Z,2.56
2022-11-30T17:16:52.203Z,2.70
2022-11-30T17:19:20.605Z,2.74
2022-11-30T17:21:49.985Z,2.78
2022-11-30T17:24:17.222Z,2.71
2022-11-30T17:26:44.461Z,2.70
2022-11-30T17:29:11.659Z,2.65
2022-11-30T17:31:38.848Z,2.67
2022-11-30T17:34:08.534Z,2.70
2022-11-30T17:36:35.742Z,2.72
2022-11-30T17:39:07.813Z,2.73
2022-11-30T17:41:35.139Z,2.72
2022-11-30T17:44:02.902Z,2.74
2022-11-30T17:46:30.159Z,2.72
2022-11-30T17:48:57.632Z,2.76
2022-11-30T17:51:24.894Z,2.76
2022-11-30T17:53:52.122Z,2.73
2022-11-30T17:56:19.369Z,2.74
2022-11-30T17:58:49.116Z,2.77
2022-11-30T18:01:27.501Z,2.76
2022-11-30T18:03:56.564Z,2.69
2022-11-30T18:06:23.965Z,2.66
2022-11-30T18:08:51.327Z,2.68
2022-11-30T18:11:25.082Z,2.65
2022-11-30T18:13:56.036Z,2.64
2022-11-30T18:16:37.177Z,2.62
2022-11-30T18:19:12.408Z,2.66
2022-11-30T18:21:43.763Z,2.69
2022-11-30T18:24:12.568Z,2.72
2022-11-30T18:26:40.399Z,2.65
2022-11-30T18:29:08.104Z,2.64
2022-11-30T18:31:36.275Z,2.64
2022-11-30T18:34:07.425Z,2.61
2022-11-30T18:36:35.077Z,2.64
2022-11-30T18:39:02.307Z,2.58
2022-11-30T18:41:30.421Z,2.51
2022-11-30T18:43:58.541Z,2.38
2022-11-30T18:46:26.597Z,2.34
2022-11-30T18:48:54.612Z,2.38
2022-11-30T18:51:30.190Z,2.43
2022-11-30T18:54:02.906Z,2.44
2022-11-30T18:56:34.409Z,2.42
2022-11-30T18:59:09.897Z,2.37
2022-11-30T19:01:37.763Z,2.44
2022-11-30T19:04:11.333Z,2.40
2022-11-30T19:06:41.931Z,2.44
2022-11-30T19:09:14.763Z,2.46
2022-11-30T19:11:43.402Z,2.59
2022-11-30T19:14:15.000Z,2.62
2022-11-30T19:16:43.834Z,2.54
2022-11-30T19:19:15.294Z,2.46
2022-11-30T19:21:47.207Z,2.51
2022-11-30T19:24:16.286Z,2.40
2022-11-30T19:26:48.759Z,2.36
2022-11-30T19:29:19.791Z,2.38
2022-11-30T19:31:49.435Z,2.45
2022-11-30T19:34:17.850Z,2.57
2022-11-30T19:36:46.272Z,2.56
2022-11-30T19:39:13.538Z,2.56
2022-11-30T19:41:40.738Z,2.56
2022-11-30T19:44:14.278Z,2.64
2022-11-30T19:46:42.226Z,2.54
2022-11-30T19:49:10.648Z,2.64
2022-11-30T19:51:38.033Z,2.74
2022-11-30T19:54:05.295Z,2.62
2022-11-30T19:56:34.632Z,2.53
2022-11-30T19:59:05.490Z,2.43
2022-11-30T20:01:34.736Z,2.58
2022-11-30T20:04:02.774Z,2.63
2022-11-30T20:06:37.318Z,2.54
2022-11-30T20:09:07.469Z,2.62
2022-11-30T20:11:35.296Z,2.58
2022-11-30T20:14:02.811Z,2.48
2022-11-30T20:16:30.323Z,2.36
2022-11-30T20:19:01.456Z,2.39
2022-11-30T20:21:34.962Z,2.37
2022-11-30T20:24:07.138Z,2.35
2022-11-30T20:26:42.102Z,2.37
2022-11-30T20:29:15.903Z,2.36
2022-11-30T20:31:46.215Z,2.33
2022-11-30T20:34:13.535Z,2.31
2022-11-30T20:36:40.930Z,2.24
2022-11-30T20:39:10.008Z,2.20
2022-11-30T20:41:37.325Z,2.18
2022-11-30T20:44:04.995Z,2.19
2022-11-30T20:46:36.344Z,2.08
2022-11-30T20:49:13.885Z,2.07
2022-11-30T20:51:42.155Z,1.99
2022-11-30T20:54:11.899Z,2.09
2022-11-30T20:56:41.067Z,2.03
2022-11-30T20:59:16.855Z,2.01
2022-11-30T21:01:46.976Z,1.95
2022-11-30T21:04:14.465Z,1.85
2022-11-30T21:06:45.603Z,1.82
2022-11-30T21:09:19.085Z,1.88
2022-11-30T21:11:48.649Z,1.81
2022-11-30T21:14:17.801Z,1.81
2022-11-30T21:16:45.045Z,1.76
2022-11-30T21:19:14.045Z,1.77
2022-11-30T21:21:41.330Z,1.78
2022-11-30T21:24:11.384Z,1.79
2022-11-30T21:26:42.222Z,1.81
2022-11-30T21:29:16.964Z,1.85
2022-11-30T21:31:45.028Z,1.90
2022-11-30T21:34:12.842Z,1.88
2022-11-30T21:36:40.161Z,1.97
2022-11-30T21:39:09.212Z,1.99
2022-11-30T21:41:39.542Z,1.95
2022-11-30T21:44:13.238Z,1.92
2022-11-30T21:46:41.460Z,1.89
2022-11-30T21:49:11.671Z,1.84
2022-11-30T21:51:39.448Z,1.82
2022-11-30T21:54:11.812Z,1.82
2022-11-30T21:56:42.558Z,1.69
2022-11-30T21:59:14.000Z,1.79
2022-11-30T22:01:43.613Z,1.81
2022-11-30T22:04:13.255Z,1.79
2022-11-30T22:06:42.318Z,1.68
2022-11-30T22:09:17.699Z,1.64
2022-11-30T22:11:45.765Z,1.54
2022-11-30T22:14:16.491Z,1.57
2022-11-30T22:16:44.585Z,1.66
2022-11-30T22:19:11.887Z,1.59
2022-11-30T22:21:39.723Z,1.39
2022-11-30T22:24:11.612Z,1.40
2022-11-30T22:26:43.142Z,1.36
2022-11-30T22:29:22.630Z,1.30
2022-11-30T22:31:53.446Z,1.35
2022-11-30T22:34:21.429Z,1.25
2022-11-30T22:36:49.031Z,1.30
2022-11-30T22:39:21.600Z,1.20
2022-11-30T22:41:55.645Z,1.26
2022-11-30T22:44:24.613Z,1.29
2022-11-30T22:46:51.923Z,1.14
2022-11-30T22:49:21.483Z,1.02
2022-11-30T22:51:50.118Z,0.94
2022-11-30T22:54:18.355Z,0.95
2022-11-30T22:56:46.465Z,0.94
2022-11-30T22:59:15.768Z,0.98
2022-11-30T23:01:49.655Z,1.07
2022-11-30T23:04:20.870Z,0.99
2022-11-30T23:06:49.829Z,0.89
2022-11-30T23:09:22.884Z,0.99
2022-11-30T23:11:51.586Z,1.12
2022-11-30T23:14:19.635Z,1.05
2022-11-30T23:16:47.560Z,0.82
2022-11-30T23:19:15.373Z,0.58
2022-11-30T23:21:45.329Z,0.59
2022-11-30T23:24:22.355Z,0.72
2022-11-30T23:26:50.031Z,0.77
2022-11-30T23:29:18.410Z,0.49
2022-11-30T23:31:47.479Z,0.37
2022-11-30T23:34:22.121Z,0.38
2022-11-30T23:36:50.627Z,0.42
2022-11-30T23:39:19.797Z,0.26
2022-11-30T23:41:47.244Z,0.15
2022-11-30T23:44:14.659Z,0.09
2022-11-30T23:46:42.170Z,0.08
2022-11-30T23:49:09.718Z,0.04
2022-11-30T23:51:37.053Z,-0.03
2022-11-30T23:54:05.074Z,-0.13
2022-11-30T23:56:32.511Z,-0.06
2022-11-30T23:58:59.767Z,-0.10
